UGSB/BUS METAR and TAF weather

Enter ICAO airport designator
Station Type Date Time Source
UGSB METAR 2019/08/25 13:30 UTC NOAA

UGSB 251330Z 27004KT 9999 FEW030 27/22 Q1015 NOSIG


Station Type Date Time Source
UGSB Decoded METAR 2019/08/25 13:30 UTC NOAA

Station name not available
Aug 25, 2019 - 09:30 AM EDT / 2019.08.25 1330 UTC
Wind: from the W (270 degrees) at 5 MPH (4 KT):0
Visibility: greater than 7 mile(s):0
Sky conditions: mostly clear
Temperature: 80 F (27 C)
Dew Point: 71 F (22 C)
Relative Humidity: 74%
Pressure (altimeter): 29.97 in. Hg (1015 hPa)
ob: UGSB 251330Z 27004KT 9999 FEW030 27/22 Q1015 NOSIG
cycle: 13

Station Type Date Time Source
UGSB TAF 2019/08/25 12:03 UTC NOAA

TAF UGSB 251100Z 2512/2612 25009KT 9999 SCT030 TX27/2611Z TN22/2602Z PROB40
TEMPO 2516/2522 VRB15KT TSRA BKN025CB
BECMG 2517/2519 13010KT

Example: see airport list